createdAt,value
2018-01-21T00:00:51.263Z,22.93
2018-01-21T00:03:18.060Z,23.23
2018-01-21T00:05:44.927Z,25.02
2018-01-21T00:08:11.635Z,23.17
2018-01-21T00:10:37.867Z,22.00
2018-01-21T00:13:04.097Z,25.67
2018-01-21T00:15:30.236Z,23.75
2018-01-21T00:17:57.058Z,20.62
2018-01-21T00:20:24.021Z,24.55
2018-01-21T00:22:50.922Z,24.58
2018-01-21T00:25:16.914Z,22.42
2018-01-21T00:27:42.917Z,26.23
2018-01-21T00:30:09.684Z,22.62
2018-01-21T00:32:36.592Z,24.27
2018-01-21T00:35:06.709Z,23.15
2018-01-21T00:37:32.731Z,26.33
2018-01-21T00:39:59.366Z,22.37
2018-01-21T00:42:25.435Z,20.67
2018-01-21T00:44:51.443Z,23.38
2018-01-21T00:47:17.437Z,19.67
2018-01-21T00:49:43.472Z,20.70
2018-01-21T00:52:09.498Z,21.77
2018-01-21T00:54:36.876Z,25.30
2018-01-21T00:57:03.055Z,23.55
2018-01-21T00:59:29.242Z,21.62
2018-01-21T01:01:55.286Z,20.23
2018-01-21T01:04:21.307Z,21.42
2018-01-21T01:06:49.133Z,18.45
2018-01-21T01:09:15.144Z,21.42
2018-01-21T01:11:41.133Z,18.12
2018-01-21T01:14:07.246Z,20.90
2018-01-21T01:16:33.303Z,18.37
2018-01-21T01:19:00.054Z,20.88
2018-01-21T01:21:26.058Z,20.12
2018-01-21T01:23:52.802Z,19.58
2018-01-21T01:26:19.537Z,18.77
2018-01-21T01:28:46.459Z,18.23
2018-01-21T01:31:13.224Z,17.60
2018-01-21T01:33:39.305Z,19.80
2018-01-21T01:36:05.285Z,22.08
2018-01-21T01:38:31.282Z,17.63
2018-01-21T01:40:57.339Z,16.60
2018-01-21T01:43:23.377Z,18.62
2018-01-21T01:45:49.601Z,18.37
2018-01-21T01:48:15.667Z,17.80
2018-01-21T01:50:41.696Z,17.17
2018-01-21T01:53:08.539Z,17.23
2018-01-21T01:55:34.714Z,14.27
2018-01-21T01:58:00.733Z,15.57
2018-01-21T02:00:27.687Z,13.77
2018-01-21T02:02:53.658Z,16.67
2018-01-21T02:05:20.941Z,10.93
2018-01-21T02:07:47.021Z,10.60
2018-01-21T02:10:13.058Z,9.57
2018-01-21T02:12:39.125Z,9.50
2018-01-21T02:15:05.743Z,7.25
2018-01-21T02:17:34.736Z,8.10
2018-01-21T02:20:00.782Z,8.68
2018-01-21T02:22:26.898Z,6.47
2018-01-21T02:24:52.907Z,7.32
2018-01-21T02:27:19.811Z,6.90
2018-01-21T02:29:46.754Z,7.35
2018-01-21T02:32:12.748Z,8.00
2018-01-21T02:34:38.743Z,7.37
2018-01-21T02:37:05.038Z,8.82
2018-01-21T02:39:31.077Z,10.40
2018-01-21T02:41:57.142Z,10.50
2018-01-21T02:44:23.115Z,11.45
2018-01-21T02:46:49.135Z,9.13
2018-01-21T02:49:15.923Z,13.02
2018-01-21T02:51:41.947Z,10.88
2018-01-21T02:54:08.152Z,11.20
2018-01-21T02:56:35.043Z,14.50
2018-01-21T02:59:01.072Z,14.13
2018-01-21T03:01:27.099Z,13.50
2018-01-21T03:03:53.111Z,15.07
2018-01-21T03:06:19.366Z,15.20
2018-01-21T03:08:45.410Z,15.18
2018-01-21T03:11:11.383Z,16.52
2018-01-21T03:13:37.796Z,15.10
2018-01-21T03:16:03.974Z,20.23
2018-01-21T03:18:30.075Z,15.73
2018-01-21T03:20:56.464Z,20.37
2018-01-21T03:23:22.428Z,20.35
2018-01-21T03:25:48.424Z,20.13
2018-01-21T03:28:14.390Z,20.47
2018-01-21T03:30:40.442Z,20.30
2018-01-21T03:33:06.459Z,23.90
2018-01-21T03:35:32.455Z,21.17
2018-01-21T03:37:59.993Z,26.13
2018-01-21T03:40:25.998Z,21.08
2018-01-21T03:42:52.021Z,19.37
2018-01-21T03:45:18.207Z,20.62
2018-01-21T03:47:44.219Z,16.73
2018-01-21T03:50:10.917Z,9.23
2018-01-21T03:52:36.937Z,7.65
2018-01-21T03:55:03.090Z,13.77
2018-01-21T03:57:30.014Z,11.02
2018-01-21T03:59:57.256Z,6.82
2018-01-21T04:02:23.258Z,9.70
2018-01-21T04:04:50.239Z,8.85
2018-01-21T04:07:16.981Z,9.80
2018-01-21T04:09:43.691Z,6.97
2018-01-21T04:12:10.274Z,6.12
2018-01-21T04:14:37.390Z,6.53
2018-01-21T04:17:03.427Z,7.93
2018-01-21T04:19:30.276Z,7.20
2018-01-21T04:21:57.348Z,9.38
2018-01-21T04:24:23.391Z,8.68
2018-01-21T04:26:49.403Z,8.57
2018-01-21T04:29:15.399Z,9.32
2018-01-21T04:31:41.424Z,10.75
2018-01-21T04:34:08.012Z,9.07
2018-01-21T04:36:34.000Z,10.82
2018-01-21T04:39:00.950Z,8.37
2018-01-21T04:41:27.178Z,13.10
2018-01-21T04:43:53.153Z,12.73
2018-01-21T04:46:19.172Z,10.00
2018-01-21T04:48:45.248Z,9.30
2018-01-21T04:51:11.296Z,10.55
2018-01-21T04:53:38.234Z,12.35
2018-01-21T04:56:04.213Z,14.82
2018-01-21T04:58:30.330Z,12.70
2018-01-21T05:00:56.512Z,13.35
2018-01-21T05:03:22.518Z,14.38
2018-01-21T05:05:48.506Z,18.42
2018-01-21T05:08:14.847Z,14.10
2018-01-21T05:10:41.768Z,13.73
2018-01-21T05:13:08.535Z,13.20
2018-01-21T05:15:34.644Z,16.90
2018-01-21T05:18:00.686Z,13.10
2018-01-21T05:20:26.791Z,12.30
2018-01-21T05:22:54.236Z,12.77
2018-01-21T05:25:22.203Z,11.73
2018-01-21T05:27:48.260Z,12.48
2018-01-21T05:30:14.269Z,11.55
2018-01-21T05:32:40.310Z,14.45
2018-01-21T05:35:06.330Z,10.45
2018-01-21T05:37:32.546Z,12.60
2018-01-21T05:39:58.786Z,11.32
2018-01-21T05:42:24.766Z,11.90
2018-01-21T05:44:50.793Z,11.63
2018-01-21T05:47:16.877Z,11.38
2018-01-21T05:49:42.900Z,12.00
2018-01-21T05:52:08.990Z,10.48
2018-01-21T05:54:35.139Z,10.25
2018-01-21T05:57:02.123Z,11.38
2018-01-21T05:59:28.228Z,10.45
2018-01-21T06:01:54.295Z,13.82
2018-01-21T06:04:21.030Z,11.73
2018-01-21T06:06:47.612Z,13.70
2018-01-21T06:09:15.117Z,8.75
2018-01-21T06:11:42.078Z,11.10
2018-01-21T06:14:08.104Z,11.55
2018-01-21T06:16:34.124Z,10.30
2018-01-21T06:19:00.824Z,9.77
2018-01-21T06:21:26.807Z,9.88
2018-01-21T06:23:52.820Z,8.20
2018-01-21T06:26:18.846Z,8.23
2018-01-21T06:28:44.810Z,9.38
2018-01-21T06:31:10.861Z,8.80
2018-01-21T06:33:37.125Z,8.35
2018-01-21T06:36:03.548Z,9.05
2018-01-21T06:38:29.636Z,9.18
2018-01-21T06:40:55.688Z,7.80
2018-01-21T06:43:21.798Z,7.70
2018-01-21T06:45:48.418Z,7.50
2018-01-21T06:48:14.437Z,7.93
2018-01-21T06:50:40.393Z,7.93
2018-01-21T06:53:06.412Z,6.67
2018-01-21T06:55:33.155Z,7.07
2018-01-21T06:57:59.212Z,5.90
2018-01-21T07:00:25.392Z,6.00
2018-01-21T07:02:51.439Z,5.87
2018-01-21T07:05:17.434Z,6.00
2018-01-21T07:07:44.267Z,5.73
2018-01-21T07:10:11.315Z,7.20
2018-01-21T07:12:38.898Z,5.35
2018-01-21T07:15:04.981Z,7.75
2018-01-21T07:17:31.335Z,6.18
2018-01-21T07:19:58.242Z,5.15
2018-01-21T07:22:24.281Z,4.78
2018-01-21T07:24:50.323Z,4.72
2018-01-21T07:27:17.932Z,4.80
2018-01-21T07:29:43.986Z,4.78
2018-01-21T07:32:10.076Z,7.07
2018-01-21T07:34:36.349Z,5.35
2018-01-21T07:37:02.358Z,7.10
2018-01-21T07:39:28.450Z,26.90
2018-01-21T07:41:55.674Z,6.82
2018-01-21T07:44:21.734Z,5.55
2018-01-21T07:46:48.213Z,5.25
2018-01-21T07:49:14.982Z,6.50
2018-01-21T07:51:40.992Z,5.07
2018-01-21T07:54:07.015Z,6.65
2018-01-21T07:56:33.385Z,7.28
2018-01-21T07:58:59.377Z,6.30
2018-01-21T08:01:27.019Z,6.32
2018-01-21T08:03:53.412Z,7.70
2018-01-21T08:06:21.856Z,6.20
2018-01-21T08:08:48.842Z,7.12
2018-01-21T08:11:15.084Z,7.37
2018-01-21T08:13:44.534Z,8.63
2018-01-21T08:16:12.709Z,8.00
2018-01-21T08:18:38.811Z,8.20
2018-01-21T08:21:04.987Z,10.30
2018-01-21T08:23:31.081Z,9.85
2018-01-21T08:25:57.848Z,8.68
2018-01-21T08:28:25.358Z,7.87
2018-01-21T08:30:57.842Z,6.62
2018-01-21T08:33:24.079Z,7.32
2018-01-21T08:39:06.243Z,21.55
2018-01-21T08:41:42.326Z,10.83
2018-01-21T08:44:08.592Z,8.90
2018-01-21T08:46:34.718Z,10.38
2018-01-21T08:49:03.399Z,9.05
2018-01-21T08:51:31.404Z,10.18
2018-01-21T08:53:58.454Z,6.80
2018-01-21T08:56:26.594Z,10.40
2018-01-21T08:58:53.229Z,16.67
2018-01-21T09:01:20.286Z,8.20
2018-01-21T09:03:47.026Z,11.52
2018-01-21T09:06:14.968Z,11.68
2018-01-21T09:08:43.873Z,11.38
2018-01-21T09:11:12.828Z,13.98
2018-01-21T09:13:39.349Z,12.83
2018-01-21T09:16:06.128Z,13.40
2018-01-21T09:18:33.320Z,12.07
2018-01-21T09:20:59.460Z,13.70
2018-01-21T09:23:26.357Z,8.63
2018-01-21T09:25:52.929Z,8.82
2018-01-21T09:28:20.748Z,10.38
2018-01-21T09:30:47.336Z,14.75
2018-01-21T09:33:13.455Z,8.77
2018-01-21T09:35:39.747Z,10.65
2018-01-21T09:40:38.750Z,8.48
2018-01-21T09:43:05.167Z,10.90
2018-01-21T09:48:09.243Z,8.68
2018-01-21T09:53:06.899Z,11.40
2018-01-21T09:55:34.699Z,10.32
2018-01-21T09:58:00.767Z,8.23
2018-01-21T10:00:26.909Z,9.75
2018-01-21T10:02:54.887Z,8.80
2018-01-21T10:05:21.006Z,9.25
2018-01-21T10:07:49.793Z,8.82
2018-01-21T10:10:18.891Z,9.75
2018-01-21T10:12:45.207Z,11.95
2018-01-21T10:15:11.226Z,12.37
2018-01-21T10:17:37.968Z,14.00
2018-01-21T10:20:04.011Z,13.10
2018-01-21T10:22:30.171Z,13.38
2018-01-21T10:24:56.163Z,14.80
2018-01-21T10:27:22.506Z,13.40
2018-01-21T10:29:48.636Z,15.10
2018-01-21T10:32:14.580Z,13.20
2018-01-21T10:34:41.423Z,13.17
2018-01-21T10:37:07.418Z,12.00
2018-01-21T10:39:34.092Z,15.68
2018-01-21T10:42:00.210Z,13.10
2018-01-21T10:44:26.504Z,14.43
2018-01-21T10:46:52.868Z,11.88
2018-01-21T10:49:19.260Z,11.40
2018-01-21T10:51:45.292Z,10.40
2018-01-21T10:54:12.053Z,10.03
2018-01-21T10:56:38.178Z,11.23
2018-01-21T10:59:04.309Z,11.55
2018-01-21T11:01:31.130Z,9.97
2018-01-21T11:03:57.242Z,11.33
2018-01-21T11:06:24.437Z,10.07
2018-01-21T11:08:51.154Z,12.53
2018-01-21T11:11:17.158Z,7.93
2018-01-21T11:13:43.919Z,9.90
2018-01-21T11:16:10.795Z,9.03
2018-01-21T11:18:37.422Z,10.50
2018-01-21T11:21:03.383Z,9.23
2018-01-21T11:23:30.406Z,8.40
2018-01-21T11:25:57.007Z,13.30
2018-01-21T11:28:23.785Z,8.90
2018-01-21T11:30:49.889Z,10.77
2018-01-21T11:33:15.914Z,8.20
2018-01-21T11:35:43.031Z,7.93
2018-01-21T11:38:10.299Z,8.50
2018-01-21T11:40:37.121Z,7.90
2018-01-21T11:43:04.999Z,10.10
2018-01-21T11:45:31.890Z,7.17
2018-01-21T11:47:59.143Z,8.77
2018-01-21T11:50:25.226Z,9.10
2018-01-21T11:52:51.223Z,7.93
2018-01-21T11:55:17.433Z,8.87
2018-01-21T11:57:44.391Z,8.20
2018-01-21T12:02:52.413Z,13.00
2018-01-21T12:05:19.497Z,10.17
2018-01-21T12:07:46.462Z,6.60
2018-01-21T12:10:13.457Z,8.13
2018-01-21T12:12:40.726Z,6.20
2018-01-21T12:15:08.174Z,10.10
2018-01-21T12:17:34.828Z,8.03
2018-01-21T12:20:01.823Z,7.90
2018-01-21T12:22:27.785Z,8.87
2018-01-21T12:24:55.518Z,6.93
2018-01-21T12:27:22.234Z,7.78
2018-01-21T12:29:49.405Z,11.00
2018-01-21T12:32:15.478Z,5.57
2018-01-21T12:34:42.440Z,7.10
2018-01-21T12:37:10.001Z,6.10
2018-01-21T12:39:36.579Z,6.37
2018-01-21T12:42:02.775Z,7.63
2018-01-21T12:44:30.082Z,7.23
2018-01-21T12:46:59.360Z,7.60
2018-01-21T12:49:26.287Z,5.43
2018-01-21T12:51:52.567Z,5.00
2018-01-21T12:54:18.640Z,5.30
2018-01-21T12:56:44.702Z,4.53
2018-01-21T12:59:11.499Z,8.40
2018-01-21T13:01:37.935Z,5.30
2018-01-21T13:04:04.169Z,5.00
2018-01-21T13:06:34.505Z,5.33
2018-01-21T13:09:00.560Z,4.70
2018-01-21T13:11:29.105Z,4.73
2018-01-21T13:13:57.007Z,6.20
2018-01-21T13:16:24.822Z,5.07
2018-01-21T13:18:50.906Z,4.20
2018-01-21T13:21:18.615Z,5.73
2018-01-21T13:23:45.272Z,6.70
2018-01-21T13:26:11.283Z,3.77
2018-01-21T13:28:39.234Z,4.83
2018-01-21T13:31:05.559Z,4.20
2018-01-21T13:33:32.230Z,3.47
2018-01-21T13:35:59.013Z,3.30
2018-01-21T13:38:25.113Z,5.57
2018-01-21T13:40:51.339Z,5.07
2018-01-21T13:43:26.241Z,4.60
2018-01-21T13:45:52.582Z,4.17
2018-01-21T13:48:19.455Z,5.53
2018-01-21T13:50:46.103Z,5.77
2018-01-21T13:53:12.082Z,6.93
2018-01-21T13:55:38.320Z,2.80
2018-01-21T13:58:05.246Z,2.93
2018-01-21T14:00:31.814Z,2.97
2018-01-21T14:02:59.496Z,3.90
2018-01-21T14:05:25.703Z,4.40
2018-01-21T14:07:53.252Z,6.57
2018-01-21T14:10:19.858Z,3.50
2018-01-21T14:12:47.251Z,3.33
2018-01-21T14:15:14.507Z,3.63
2018-01-21T14:17:41.493Z,3.87
2018-01-21T14:20:09.530Z,3.97
2018-01-21T14:22:37.282Z,8.20
2018-01-21T14:25:05.382Z,6.33
2018-01-21T14:27:31.484Z,6.60
2018-01-21T14:29:58.405Z,8.80
2018-01-21T14:32:25.159Z,3.13
2018-01-21T14:34:51.168Z,7.83
2018-01-21T14:37:17.189Z,5.73
2018-01-21T14:39:43.392Z,4.57
2018-01-21T14:42:09.426Z,4.27
2018-01-21T14:44:35.468Z,4.57
2018-01-21T14:47:01.547Z,11.90
2018-01-21T14:49:31.771Z,4.10
2018-01-21T14:51:58.702Z,4.17
2018-01-21T14:56:58.076Z,4.53
2018-01-21T14:59:24.111Z,4.57
2018-01-21T15:01:50.686Z,4.00
2018-01-21T15:04:16.677Z,4.30
2018-01-21T15:06:42.928Z,4.93
2018-01-21T15:09:09.089Z,4.07
2018-01-21T15:14:07.829Z,4.17
2018-01-21T15:16:34.676Z,7.10
2018-01-21T15:19:01.062Z,6.97
2018-01-21T15:21:27.138Z,6.73
2018-01-21T15:23:54.951Z,4.87
2018-01-21T15:26:24.119Z,3.50
2018-01-21T15:28:51.239Z,4.30
2018-01-21T15:31:18.602Z,3.57
2018-01-21T15:36:21.335Z,3.87
2018-01-21T15:38:52.422Z,5.10
2018-01-21T15:41:19.998Z,4.00
2018-01-21T15:43:47.017Z,4.90
2018-01-21T15:46:14.024Z,7.10
2018-01-21T15:48:40.078Z,3.67
2018-01-21T15:51:12.293Z,6.73
2018-01-21T15:53:41.371Z,6.80
2018-01-21T15:56:07.747Z,5.93
2018-01-21T15:58:39.675Z,4.60
2018-01-21T16:01:06.104Z,6.30
2018-01-21T16:03:35.036Z,4.67
2018-01-21T16:06:01.128Z,5.67
2018-01-21T16:08:27.272Z,5.10
2018-01-21T16:10:54.483Z,7.57
2018-01-21T16:13:20.419Z,5.80
2018-01-21T16:15:46.906Z,7.03
2018-01-21T16:18:13.802Z,9.40
2018-01-21T16:23:13.602Z,5.43
2018-01-21T16:25:40.321Z,6.37
2018-01-21T16:28:06.348Z,8.00
2018-01-21T16:30:32.299Z,7.27
2018-01-21T16:32:58.345Z,5.33
2018-01-21T16:35:24.784Z,8.57
2018-01-21T16:38:03.662Z,6.40
2018-01-21T16:40:30.466Z,7.00
2018-01-21T16:42:56.390Z,6.53
2018-01-21T16:45:22.330Z,7.47
2018-01-21T16:47:53.197Z,6.80
2018-01-21T16:50:19.859Z,9.53
2018-01-21T16:52:47.499Z,6.80
2018-01-21T16:55:14.266Z,9.27
2018-01-21T16:57:43.154Z,7.17
2018-01-21T17:00:15.027Z,13.10
2018-01-21T17:02:43.698Z,6.80
2018-01-21T17:05:09.691Z,11.77
2018-01-21T17:07:36.797Z,8.53
2018-01-21T17:10:03.108Z,8.90
2018-01-21T17:15:01.525Z,6.30
2018-01-21T17:17:31.110Z,7.70
2018-01-21T17:19:58.059Z,8.50
2018-01-21T17:22:26.885Z,8.17
2018-01-21T17:25:02.808Z,9.53
2018-01-21T17:27:30.085Z,6.40
2018-01-21T17:29:59.352Z,9.30
2018-01-21T17:32:31.563Z,8.77
2018-01-21T17:35:02.898Z,9.40
2018-01-21T17:37:33.594Z,6.60
2018-01-21T17:40:03.586Z,9.13
2018-01-21T17:42:31.507Z,6.57
2018-01-21T17:44:58.465Z,6.90
2018-01-21T17:47:24.665Z,11.27
2018-01-21T17:49:51.327Z,8.40
2018-01-21T17:54:53.511Z,7.60
2018-01-21T17:57:19.715Z,6.93
2018-01-21T17:59:50.676Z,7.67
2018-01-21T18:02:18.140Z,8.20
2018-01-21T18:04:44.265Z,7.07
2018-01-21T18:07:10.355Z,5.60
2018-01-21T18:09:36.393Z,7.70
2018-01-21T18:12:03.815Z,8.33
2018-01-21T18:14:30.061Z,6.37
2018-01-21T18:16:56.109Z,8.27
2018-01-21T18:19:22.337Z,7.17
2018-01-21T18:21:48.338Z,21.73
2018-01-21T18:24:14.397Z,9.97
2018-01-21T18:26:47.644Z,6.93
2018-01-21T18:29:16.047Z,9.05
2018-01-21T18:31:46.030Z,8.93
2018-01-21T18:34:12.608Z,6.00
2018-01-21T18:36:39.664Z,7.33
2018-01-21T18:39:07.280Z,7.30
2018-01-21T18:41:34.282Z,8.30
2018-01-21T18:44:03.859Z,7.73
2018-01-21T18:46:29.835Z,6.00
2018-01-21T18:49:04.327Z,6.43
2018-01-21T18:51:31.322Z,6.43
2018-01-21T18:53:57.759Z,7.33
2018-01-21T18:56:25.590Z,8.57
2018-01-21T18:58:54.411Z,8.02
2018-01-21T19:01:21.459Z,7.00
2018-01-21T19:03:47.658Z,8.57
2018-01-21T19:06:15.711Z,12.10
2018-01-21T19:08:45.504Z,9.70
2018-01-21T19:11:16.478Z,7.95
2018-01-21T19:13:42.467Z,12.93
2018-01-21T19:16:11.423Z,7.70
2018-01-21T19:18:38.027Z,10.20
2018-01-21T19:21:05.832Z,10.48
2018-01-21T19:23:31.951Z,9.67
2018-01-21T19:26:00.600Z,11.00
2018-01-21T19:28:27.614Z,6.37
2018-01-21T19:30:56.662Z,6.32
2018-01-21T19:33:27.011Z,6.45
2018-01-21T19:35:53.536Z,13.82
2018-01-21T19:38:34.759Z,6.35
2018-01-21T19:41:06.362Z,8.83
2018-01-21T19:43:39.257Z,12.05
2018-01-21T19:46:07.121Z,13.40
2018-01-21T19:51:15.101Z,14.93
2018-01-21T19:53:41.120Z,22.35
2018-01-21T19:56:09.066Z,16.97
2018-01-21T19:58:35.281Z,16.07
2018-01-21T20:01:04.765Z,16.50
2018-01-21T20:03:31.082Z,11.90
2018-01-21T20:06:01.715Z,9.38
2018-01-21T20:10:59.326Z,11.68
2018-01-21T20:15:58.691Z,11.80
2018-01-21T20:18:26.093Z,11.27
2018-01-21T20:20:53.120Z,10.63
2018-01-21T20:23:19.879Z,10.80
2018-01-21T20:25:50.634Z,10.27
2018-01-21T20:28:18.702Z,12.60
2018-01-21T20:30:45.433Z,13.27
2018-01-21T20:33:13.232Z,16.23
2018-01-21T20:35:39.325Z,16.42
2018-01-21T20:38:07.009Z,14.30
2018-01-21T20:43:07.159Z,15.23
2018-01-21T20:45:35.577Z,12.57
2018-01-21T20:48:02.794Z,12.32
2018-01-21T20:50:32.803Z,10.18
2018-01-21T20:53:04.998Z,11.77
2018-01-21T20:55:32.691Z,8.90
2018-01-21T20:57:58.740Z,11.25
2018-01-21T21:00:25.598Z,12.15
2018-01-21T21:02:51.973Z,12.50
2018-01-21T21:05:20.278Z,11.95
2018-01-21T21:07:49.606Z,12.52
2018-01-21T21:10:16.548Z,10.50
2018-01-21T21:12:47.928Z,9.95
2018-01-21T21:15:16.036Z,8.82
2018-01-21T21:17:43.784Z,10.48
2018-01-21T21:20:11.414Z,10.90
2018-01-21T21:22:43.918Z,10.90
2018-01-21T21:25:09.969Z,10.52
2018-01-21T21:27:37.788Z,11.00
2018-01-21T21:37:39.100Z,13.13
2018-01-21T21:40:06.834Z,10.70
2018-01-21T21:42:34.754Z,10.70
2018-01-21T21:45:00.982Z,16.00
2018-01-21T21:52:31.039Z,10.25
2018-01-21T21:54:58.717Z,12.60
2018-01-21T21:57:25.645Z,9.82
2018-01-21T21:59:52.451Z,14.93
2018-01-21T22:02:21.800Z,14.02
2018-01-21T22:07:32.110Z,14.15
2018-01-21T22:10:02.185Z,10.43
2018-01-21T22:15:04.601Z,13.23
2018-01-21T22:20:03.864Z,14.27
2018-01-21T22:25:01.917Z,9.98
2018-01-21T22:27:29.205Z,11.90
2018-01-21T22:29:56.641Z,9.98
2018-01-21T22:32:23.702Z,10.63
2018-01-21T22:34:50.825Z,8.18
2018-01-21T22:37:19.271Z,15.35
2018-01-21T22:39:48.727Z,10.93
2018-01-21T22:42:19.393Z,11.20
2018-01-21T22:44:46.301Z,9.80
2018-01-21T22:47:14.059Z,11.95
2018-01-21T22:49:41.321Z,13.98
2018-01-21T22:57:19.672Z,13.65
2018-01-21T22:59:46.294Z,11.90
2018-01-21T23:02:13.591Z,21.87
2018-01-21T23:04:43.562Z,14.27
2018-01-21T23:07:16.605Z,10.70
2018-01-21T23:09:48.097Z,13.80
2018-01-21T23:12:21.037Z,13.27
2018-01-21T23:14:51.390Z,15.18
2018-01-21T23:17:21.883Z,12.25
2018-01-21T23:19:49.709Z,13.23
2018-01-21T23:22:18.947Z,10.13
2018-01-21T23:24:46.157Z,10.13
2018-01-21T23:27:12.186Z,12.25
2018-01-21T23:29:44.239Z,9.30
2018-01-21T23:34:44.504Z,8.45
2018-01-21T23:37:15.217Z,12.82
2018-01-21T23:39:42.508Z,11.32
2018-01-21T23:42:10.171Z,11.15
2018-01-21T23:44:38.839Z,10.20
2018-01-21T23:47:05.917Z,12.25
2018-01-21T23:49:34.434Z,11.45
2018-01-21T23:57:12.620Z,7.87
2018-01-21T23:59:40.268Z,9.65
